Time,TemperatureF,DewpointF,PressureIn,WindDirection,WindDirectionDegrees,WindSpeedMPH,WindSpeedGustMPH,Humidity,HourlyPrecipIn,Conditions,Clouds,dailyrainin,SoftwareType,DateUTC
2013-03-24 00:22:00,56.0,54.0,30.02,SE,130,2.0,-999.0,94,0.00,,,-99.99,,2013-03-24 07:22:00,
2013-03-24 00:32:00,56.0,54.0,30.02,SE,130,2.0,-999.0,94,0.00,,,-99.99,,2013-03-24 07:32:00,
2013-03-24 00:42:00,56.0,54.0,30.02,SE,130,2.0,-999.0,94,0.00,,,-99.99,,2013-03-24 07:42:00,
2013-03-24 00:52:00,56.0,54.0,30.02,SE,130,2.0,-999.0,94,0.00,,,-99.99,,2013-03-24 07:52:00,
2013-03-24 01:22:00,56.0,55.0,30.02,North,0,0.0,-999.0,95,0.00,,,-99.99,,2013-03-24 08:22:00,
2013-03-24 01:32:00,56.0,55.0,30.02,North,0,0.0,-999.0,95,0.00,,,-99.99,,2013-03-24 08:32:00,
2013-03-24 01:42:00,56.0,55.0,30.02,North,0,0.0,-999.0,95,0.00,,,-99.99,,2013-03-24 08:42:00,
2013-03-24 01:52:00,56.0,55.0,30.02,North,0,0.0,-999.0,95,0.00,,,-99.99,,2013-03-24 08:52:00,
2013-03-24 02:22:00,55.0,54.0,30.02,ESE,120,3.0,-999.0,95,0.00,,,-99.99,,2013-03-24 09:22:00,
2013-03-24 02:33:00,55.0,54.0,30.02,ESE,120,3.0,-999.0,95,0.00,,,-99.99,,2013-03-24 09:33:00,
2013-03-24 02:42:00,55.0,54.0,30.02,ESE,120,3.0,-999.0,95,0.00,,,-99.99,,2013-03-24 09:42:00,
2013-03-24 02:52:00,55.0,54.0,30.02,ESE,120,3.0,-999.0,95,0.00,,,-99.99,,2013-03-24 09:52:00,
2013-03-24 03:22:00,55.0,54.0,30.01,North,0,0.0,-999.0,95,0.00,,,-99.99,,2013-03-24 10:22:00,
2013-03-24 03:32:00,55.0,54.0,30.01,North,0,0.0,-999.0,95,0.00,,,-99.99,,2013-03-24 10:32:00,
2013-03-24 03:42:00,55.0,54.0,30.01,North,0,0.0,-999.0,95,0.00,,,-99.99,,2013-03-24 10:42:00,
2013-03-24 03:52:00,55.0,54.0,30.01,North,0,0.0,-999.0,95,0.00,,,-99.99,,2013-03-24 10:52:00,
2013-03-24 04:22:00,55.0,54.0,30.00,SE,130,1.0,-999.0,96,0.00,,,-99.99,,2013-03-24 11:22:00,
2013-03-24 04:32:00,55.0,54.0,30.00,SE,130,1.0,-999.0,96,0.00,,,-99.99,,2013-03-24 11:32:00,
2013-03-24 04:42:00,55.0,54.0,30.00,SE,130,1.0,-999.0,96,0.00,,,-99.99,,2013-03-24 11:42:00,
2013-03-24 04:52:00,55.0,54.0,30.00,SE,130,1.0,-999.0,96,0.00,,,-99.99,,2013-03-24 11:52:00,
2013-03-24 05:22:00,54.0,53.0,30.00,North,0,0.0,-999.0,97,0.00,,,-99.99,,2013-03-24 12:22:00,
2013-03-24 05:32:00,54.0,53.0,30.00,North,0,0.0,-999.0,97,0.00,,,-99.99,,2013-03-24 12:32:00,
2013-03-24 05:42:00,54.0,53.0,30.00,North,0,0.0,-999.0,97,0.00,,,-99.99,,2013-03-24 12:42:00,
2013-03-24 05:52:00,54.0,53.0,30.00,North,0,0.0,-999.0,97,0.00,,,-99.99,,2013-03-24 12:52:00,
2013-03-24 06:22:00,54.0,53.0,30.01,North,0,0.0,-999.0,96,0.00,,,-99.99,,2013-03-24 13:22:00,
2013-03-24 06:32:00,54.0,53.0,30.01,North,0,0.0,-999.0,96,0.00,,,-99.99,,2013-03-24 13:32:00,
2013-03-24 06:42:00,54.0,53.0,30.01,North,0,0.0,-999.0,96,0.00,,,-99.99,,2013-03-24 13:42:00,
2013-03-24 06:52:00,54.0,53.0,30.01,North,0,0.0,-999.0,96,0.00,,,-99.99,,2013-03-24 13:52:00,
2013-03-24 07:22:00,54.0,53.0,30.01,North,0,0.0,-999.0,96,0.00,,,-99.99,,2013-03-24 14:22:00,
2013-03-24 07:32:00,54.0,53.0,30.01,North,0,0.0,-999.0,96,0.00,,,-99.99,,2013-03-24 14:32:00,
2013-03-24 07:42:00,54.0,53.0,30.01,North,0,0.0,-999.0,96,0.00,,,-99.99,,2013-03-24 14:42:00,
2013-03-24 07:52:00,54.0,53.0,30.01,North,0,0.0,-999.0,96,0.00,,,-99.99,,2013-03-24 14:52:00,
2013-03-24 08:22:00,54.0,53.0,30.02,North,0,0.0,-999.0,95,0.00,,,-99.99,,2013-03-24 15:22:00,
2013-03-24 08:33:00,54.0,53.0,30.02,North,0,0.0,-999.0,95,0.00,,,-99.99,,2013-03-24 15:33:00,
2013-03-24 08:43:00,54.0,53.0,30.02,North,0,0.0,-999.0,95,0.00,,,-99.99,,2013-03-24 15:43:00,
2013-03-24 08:53:00,54.0,53.0,30.02,North,0,0.0,-999.0,95,0.00,,,-99.99,,2013-03-24 15:53:00,
2013-03-24 09:22:00,55.0,53.0,30.02,NNW,330,2.0,-999.0,94,0.00,,,-99.99,,2013-03-24 16:22:00,
2013-03-24 09:33:00,55.0,53.0,30.02,NNW,330,2.0,-999.0,94,0.00,,,-99.99,,2013-03-24 16:33:00,
2013-03-24 09:42:00,55.0,53.0,30.02,NNW,330,2.0,-999.0,94,0.00,,,-99.99,,2013-03-24 16:42:00,
2013-03-24 09:52:00,55.0,53.0,30.02,NNW,330,2.0,-999.0,94,0.00,,,-99.99,,2013-03-24 16:52:00,
2013-03-24 10:22:00,59.0,55.0,30.03,WSW,250,1.0,-999.0,88,0.00,,,-99.99,,2013-03-24 17:22:00,
2013-03-24 10:32:00,59.0,55.0,30.03,WSW,250,1.0,-999.0,88,0.00,,,-99.99,,2013-03-24 17:32:00,
2013-03-24 10:42:00,59.0,55.0,30.03,WSW,250,1.0,-999.0,88,0.00,,,-99.99,,2013-03-24 17:42:00,
2013-03-24 10:52:00,59.0,55.0,30.03,WSW,250,1.0,-999.0,88,0.00,,,-99.99,,2013-03-24 17:52:00,
2013-03-24 11:22:00,62.0,56.0,30.01,West,260,4.0,-999.0,81,0.00,,,-99.99,,2013-03-24 18:22:00,
2013-03-24 11:32:00,62.0,56.0,30.01,West,260,4.0,-999.0,81,0.00,,,-99.99,,2013-03-24 18:32:00,
2013-03-24 11:42:00,62.0,56.0,30.01,West,260,4.0,-999.0,81,0.00,,,-99.99,,2013-03-24 18:42:00,
2013-03-24 11:52:00,62.0,56.0,30.01,West,260,4.0,-999.0,81,0.00,,,-99.99,,2013-03-24 18:52:00,
2013-03-24 12:22:00,63.0,57.0,29.99,South,180,1.0,-999.0,80,0.00,,,-99.99,,2013-03-24 19:22:00,
2013-03-24 12:32:00,63.0,57.0,29.99,South,180,1.0,-999.0,80,0.00,,,-99.99,,2013-03-24 19:32:00,
2013-03-24 12:42:00,63.0,57.0,29.99,South,180,1.0,-999.0,80,0.00,,,-99.99,,2013-03-24 19:42:00,
2013-03-24 12:52:00,63.0,57.0,29.99,South,180,1.0,-999.0,80,0.00,,,-99.99,,2013-03-24 19:52:00,
2013-03-24 13:22:00,65.0,56.0,29.97,NE,40,1.0,-999.0,73,0.00,,,-99.99,,2013-03-24 20:22:00,
2013-03-24 13:32:00,65.0,56.0,29.97,NE,40,1.0,-999.0,73,0.00,,,-99.99,,2013-03-24 20:32:00,
2013-03-24 13:42:00,65.0,56.0,29.97,NE,40,1.0,-999.0,73,0.00,,,-99.99,,2013-03-24 20:42:00,
2013-03-24 13:52:00,65.0,56.0,29.97,NE,40,1.0,-999.0,73,0.00,,,-99.99,,2013-03-24 20:52:00,
2013-03-24 14:22:00,64.0,57.0,29.94,NNE,30,1.0,-999.0,77,0.00,,,-99.99,,2013-03-24 21:22:00,
2013-03-24 14:33:00,64.0,57.0,29.94,NNE,30,1.0,-999.0,77,0.00,,,-99.99,,2013-03-24 21:33:00,
2013-03-24 14:43:00,64.0,57.0,29.94,NNE,30,1.0,-999.0,77,0.00,,,-99.99,,2013-03-24 21:43:00,
2013-03-24 14:52:00,64.0,57.0,29.94,NNE,30,1.0,-999.0,77,0.00,,,-99.99,,2013-03-24 21:52:00,
2013-03-24 15:22:00,67.0,57.0,29.92,SW,230,3.0,-999.0,71,0.00,,,-99.99,,2013-03-24 22:22:00,
2013-03-24 15:33:00,67.0,57.0,29.92,SW,230,3.0,-999.0,71,0.00,,,-99.99,,2013-03-24 22:33:00,
2013-03-24 15:42:00,67.0,57.0,29.92,SW,230,3.0,-999.0,71,0.00,,,-99.99,,2013-03-24 22:42:00,
2013-03-24 15:52:00,67.0,57.0,29.92,SW,230,3.0,-999.0,71,0.00,,,-99.99,,2013-03-24 22:52:00,
2013-03-24 16:22:00,66.0,57.0,29.91,NE,40,3.0,-999.0,73,0.00,,,-99.99,,2013-03-24 23:22:00,
2013-03-24 16:32:00,66.0,57.0,29.91,NE,40,3.0,-999.0,73,0.00,,,-99.99,,2013-03-24 23:32:00,
2013-03-24 16:42:00,66.0,57.0,29.91,NE,40,3.0,-999.0,73,0.00,,,-99.99,,2013-03-24 23:42:00,
2013-03-24 16:52:00,66.0,57.0,29.91,NE,40,3.0,-999.0,73,0.00,,,-99.99,,2013-03-24 23:52:00,
2013-03-24 17:22:00,67.0,58.0,29.89,WNW,290,5.0,-999.0,73,0.00,,,-99.99,,2013-03-25 00:22:00,
2013-03-24 17:32:00,67.0,58.0,29.89,WNW,290,5.0,-999.0,73,0.00,,,-99.99,,2013-03-25 00:32:00,
2013-03-24 17:42:00,67.0,58.0,29.89,WNW,290,5.0,-999.0,73,0.00,,,-99.99,,2013-03-25 00:42:00,
2013-03-24 17:52:00,67.0,58.0,29.89,WNW,290,5.0,-999.0,73,0.00,,,-99.99,,2013-03-25 00:52:00,
2013-03-24 18:22:00,63.0,57.0,29.88,WSW,250,5.0,-999.0,80,0.00,,,-99.99,,2013-03-25 01:22:00,
2013-03-24 18:32:00,63.0,57.0,29.88,WSW,250,5.0,-999.0,80,0.00,,,-99.99,,2013-03-25 01:32:00,
2013-03-24 18:42:00,63.0,57.0,29.88,WSW,250,5.0,-999.0,80,0.00,,,-99.99,,2013-03-25 01:42:00,
2013-03-24 18:52:00,63.0,57.0,29.88,WSW,250,5.0,-999.0,80,0.00,,,-99.99,,2013-03-25 01:52:00,
2013-03-24 19:22:00,61.0,56.0,29.88,North,0,0.0,-999.0,84,0.00,,,-99.99,,2013-03-25 02:22:00,
2013-03-24 19:32:00,61.0,56.0,29.88,North,0,0.0,-999.0,84,0.00,,,-99.99,,2013-03-25 02:32:00,
2013-03-24 19:42:00,61.0,56.0,29.88,North,0,0.0,-999.0,84,0.00,,,-99.99,,2013-03-25 02:42:00,
2013-03-24 19:52:00,61.0,56.0,29.88,North,0,0.0,-999.0,84,0.00,,,-99.99,,2013-03-25 02:52:00,
2013-03-24 20:22:00,59.0,56.0,29.90,North,0,0.0,-999.0,91,0.00,,,-99.99,,2013-03-25 03:22:00,
2013-03-24 20:33:00,59.0,56.0,29.90,North,0,0.0,-999.0,91,0.00,,,-99.99,,2013-03-25 03:33:00,
2013-03-24 20:42:00,59.0,56.0,29.90,North,0,0.0,-999.0,91,0.00,,,-99.99,,2013-03-25 03:42:00,
2013-03-24 20:52:00,59.0,56.0,29.90,North,0,0.0,-999.0,91,0.00,,,-99.99,,2013-03-25 03:52:00,
2013-03-24 21:22:00,57.0,55.0,29.93,North,0,0.0,-999.0,93,0.00,,,-99.99,,2013-03-25 04:22:00,
2013-03-24 21:32:00,57.0,55.0,29.93,North,0,0.0,-999.0,93,0.00,,,-99.99,,2013-03-25 04:32:00,
2013-03-24 21:42:00,57.0,55.0,29.93,North,0,0.0,-999.0,93,0.00,,,-99.99,,2013-03-25 04:42:00,
2013-03-24 21:52:00,57.0,55.0,29.93,North,0,0.0,-999.0,93,0.00,,,-99.99,,2013-03-25 04:52:00,
2013-03-24 22:22:00,57.0,56.0,29.95,SE,140,1.0,-999.0,96,0.00,,,-99.99,,2013-03-25 05:22:00,
2013-03-24 22:32:00,57.0,56.0,29.95,SE,140,1.0,-999.0,96,0.00,,,-99.99,,2013-03-25 05:32:00,
2013-03-24 22:42:00,57.0,56.0,29.95,SE,140,1.0,-999.0,96,0.00,,,-99.99,,2013-03-25 05:42:00,
2013-03-24 22:52:00,57.0,56.0,29.95,SE,140,1.0,-999.0,96,0.00,,,-99.99,,2013-03-25 05:52:00,
2013-03-24 23:22:00,57.0,56.0,29.96,North,0,0.0,-999.0,97,0.00,,,-99.99,,2013-03-25 06:22:00,
2013-03-24 23:32:00,57.0,56.0,29.96,North,0,0.0,-999.0,97,0.00,,,-99.99,,2013-03-25 06:32:00,
2013-03-24 23:42:00,57.0,56.0,29.96,North,0,0.0,-999.0,97,0.00,,,-99.99,,2013-03-25 06:42:00,
2013-03-24 23:52:00,57.0,56.0,29.96,North,0,0.0,-999.0,97,0.00,,,-99.99,,2013-03-25 06:52:00,